sensor_id;sensor_type;location;lat;lon;timestamp;pressure;altitude;pressure_sealevel;temperature;humidity
20825;BME280;10573;50.936;6.978;2023-04-24T00:01:08;99793.41;;;14.10;57.43
20825;BME280;10573;50.936;6.978;2023-04-24T00:03:34;99798.81;;;14.03;57.56
20825;BME280;10573;50.936;6.978;2023-04-24T00:05:59;99791.06;;;13.92;57.77
20825;BME280;10573;50.936;6.978;2023-04-24T00:08:26;99789.84;;;13.95;57.99
20825;BME280;10573;50.936;6.978;2023-04-24T00:10:51;99788.53;;;13.75;58.71
20825;BME280;10573;50.936;6.978;2023-04-24T00:13:17;99786.94;;;13.66;58.90
20825;BME280;10573;50.936;6.978;2023-04-24T00:15:43;99788.63;;;13.97;58.15
20825;BME280;10573;50.936;6.978;2023-04-24T00:18:08;99783.47;;;13.72;58.94
20825;BME280;10573;50.936;6.978;2023-04-24T00:20:33;99777.78;;;13.74;59.09
20825;BME280;10573;50.936;6.978;2023-04-24T00:23:00;99783.72;;;13.77;58.80
20825;BME280;10573;50.936;6.978;2023-04-24T00:25:25;99773.81;;;13.91;58.55
20825;BME280;10573;50.936;6.978;2023-04-24T00:27:51;99773.22;;;13.96;58.60
20825;BME280;10573;50.936;6.978;2023-04-24T00:30:16;99766.06;;;13.80;59.16
20825;BME280;10573;50.936;6.978;2023-04-24T00:32:41;99768.91;;;13.72;59.52
20825;BME280;10573;50.936;6.978;2023-04-24T00:35:07;99778.16;;;13.86;59.10
20825;BME280;10573;50.936;6.978;2023-04-24T00:37:32;99781.44;;;13.96;58.73
20825;BME280;10573;50.936;6.978;2023-04-24T00:39:57;99775.19;;;14.02;58.44
20825;BME280;10573;50.936;6.978;2023-04-24T00:42:23;99769.22;;;14.14;58.32
20825;BME280;10573;50.936;6.978;2023-04-24T00:44:49;99768.78;;;14.10;58.67
20825;BME280;10573;50.936;6.978;2023-04-24T00:47:14;99772.31;;;14.25;58.71
20825;BME280;10573;50.936;6.978;2023-04-24T00:49:40;99772.56;;;14.31;58.45
20825;BME280;10573;50.936;6.978;2023-04-24T00:52:05;99772.38;;;14.54;57.27
20825;BME280;10573;50.936;6.978;2023-04-24T00:54:33;99769.72;;;14.02;57.59
20825;BME280;10573;50.936;6.978;2023-04-24T00:56:59;99769.47;;;14.19;57.17
20825;BME280;10573;50.936;6.978;2023-04-24T00:59:26;99767.63;;;14.04;56.51
20825;BME280;10573;50.936;6.978;2023-04-24T01:01:51;99767.63;;;14.04;56.46
20825;BME280;10573;50.936;6.978;2023-04-24T01:04:17;99771.50;;;13.95;56.40
20825;BME280;10573;50.936;6.978;2023-04-24T01:06:43;99769.31;;;14.05;55.67
20825;BME280;10573;50.936;6.978;2023-04-24T01:09:09;99773.28;;;14.03;55.76
20825;BME280;10573;50.936;6.978;2023-04-24T01:11:36;99767.50;;;13.61;56.55
20825;BME280;10573;50.936;6.978;2023-04-24T01:14:01;99774.97;;;13.67;55.95
20825;BME280;10573;50.936;6.978;2023-04-24T01:16:27;99769.41;;;13.46;55.76
20825;BME280;10573;50.936;6.978;2023-04-24T01:18:52;99763.13;;;13.82;54.75
20825;BME280;10573;50.936;6.978;2023-04-24T01:21:17;99767.59;;;13.38;54.97
20825;BME280;10573;50.936;6.978;2023-04-24T01:23:43;99770.94;;;13.25;54.88
20825;BME280;10573;50.936;6.978;2023-04-24T01:26:09;99769.00;;;13.79;53.84
20825;BME280;10573;50.936;6.978;2023-04-24T01:28:34;99766.19;;;13.57;53.28
20825;BME280;10573;50.936;6.978;2023-04-24T01:30:59;99777.97;;;13.42;53.66
20825;BME280;10573;50.936;6.978;2023-04-24T01:33:25;99787.50;;;13.47;53.43
20825;BME280;10573;50.936;6.978;2023-04-24T01:35:50;99786.09;;;13.36;53.75
20825;BME280;10573;50.936;6.978;2023-04-24T01:38:16;99791.94;;;13.48;53.70
20825;BME280;10573;50.936;6.978;2023-04-24T01:40:41;99802.84;;;13.33;54.33
20825;BME280;10573;50.936;6.978;2023-04-24T01:43:06;99797.69;;;13.53;53.89
20825;BME280;10573;50.936;6.978;2023-04-24T01:45:31;99799.66;;;13.44;53.74
20825;BME280;10573;50.936;6.978;2023-04-24T01:47:57;99807.25;;;13.19;54.13
20825;BME280;10573;50.936;6.978;2023-04-24T01:50:22;99813.53;;;13.04;54.30
20825;BME280;10573;50.936;6.978;2023-04-24T01:52:48;99801.59;;;13.05;54.11
20825;BME280;10573;50.936;6.978;2023-04-24T01:55:13;99802.31;;;12.99;53.96
20825;BME280;10573;50.936;6.978;2023-04-24T01:57:38;99795.88;;;12.92;54.19
20825;BME280;10573;50.936;6.978;2023-04-24T02:00:05;99789.81;;;12.82;54.54
20825;BME280;10573;50.936;6.978;2023-04-24T02:02:31;99788.97;;;12.81;54.46
20825;BME280;10573;50.936;6.978;2023-04-24T02:04:57;99803.84;;;12.79;54.70
20825;BME280;10573;50.936;6.978;2023-04-24T02:07:22;99794.44;;;12.58;55.26
20825;BME280;10573;50.936;6.978;2023-04-24T02:09:48;99792.25;;;12.30;55.89
20825;BME280;10573;50.936;6.978;2023-04-24T02:12:14;99792.00;;;12.17;56.41
20825;BME280;10573;50.936;6.978;2023-04-24T02:14:39;99800.19;;;12.17;56.31
20825;BME280;10573;50.936;6.978;2023-04-24T02:17:04;99798.16;;;12.11;56.52
20825;BME280;10573;50.936;6.978;2023-04-24T02:19:30;99801.28;;;11.91;57.00
20825;BME280;10573;50.936;6.978;2023-04-24T02:21:55;99810.16;;;12.01;56.86
20825;BME280;10573;50.936;6.978;2023-04-24T02:24:20;99805.56;;;11.85;57.34
20825;BME280;10573;50.936;6.978;2023-04-24T02:26:46;99810.72;;;11.80;57.53
20825;BME280;10573;50.936;6.978;2023-04-24T02:29:11;99819.84;;;12.04;57.05
20825;BME280;10573;50.936;6.978;2023-04-24T02:31:36;99815.28;;;11.88;57.53
20825;BME280;10573;50.936;6.978;2023-04-24T02:34:02;99822.16;;;11.75;58.15
20825;BME280;10573;50.936;6.978;2023-04-24T02:36:27;99816.81;;;11.51;58.87
20825;BME280;10573;50.936;6.978;2023-04-24T02:38:52;99832.09;;;11.68;58.45
20825;BME280;10573;50.936;6.978;2023-04-24T02:41:17;99824.75;;;11.69;58.39
20825;BME280;10573;50.936;6.978;2023-04-24T02:43:43;99826.59;;;11.77;58.22
20825;BME280;10573;50.936;6.978;2023-04-24T02:46:08;99815.25;;;12.04;57.34
20825;BME280;10573;50.936;6.978;2023-04-24T02:48:33;99818.44;;;12.16;57.04
20825;BME280;10573;50.936;6.978;2023-04-24T02:50:59;99833.75;;;11.86;57.88
20825;BME280;10573;50.936;6.978;2023-04-24T02:53:24;99838.84;;;11.89;57.62
20825;BME280;10573;50.936;6.978;2023-04-24T02:55:49;99846.25;;;11.64;58.24
20825;BME280;10573;50.936;6.978;2023-04-24T02:58:15;99848.63;;;11.58;58.44
20825;BME280;10573;50.936;6.978;2023-04-24T03:00:40;99852.88;;;11.69;57.94
20825;BME280;10573;50.936;6.978;2023-04-24T03:03:06;99846.09;;;11.57;58.67
20825;BME280;10573;50.936;6.978;2023-04-24T03:05:31;99850.88;;;12.11;57.21
20825;BME280;10573;50.936;6.978;2023-04-24T03:07:57;99848.28;;;12.18;56.81
20825;BME280;10573;50.936;6.978;2023-04-24T03:10:22;99852.63;;;12.04;57.21
20825;BME280;10573;50.936;6.978;2023-04-24T03:12:48;99852.97;;;12.01;56.94
20825;BME280;10573;50.936;6.978;2023-04-24T03:15:13;99857.84;;;12.14;56.80
20825;BME280;10573;50.936;6.978;2023-04-24T03:17:38;99855.16;;;12.05;56.96
20825;BME280;10573;50.936;6.978;2023-04-24T03:20:04;99846.59;;;12.17;56.81
20825;BME280;10573;50.936;6.978;2023-04-24T03:22:30;99855.09;;;12.22;56.80
20825;BME280;10573;50.936;6.978;2023-04-24T03:24:57;99856.50;;;12.09;56.86
20825;BME280;10573;50.936;6.978;2023-04-24T03:27:23;99864.41;;;11.88;56.79
20825;BME280;10573;50.936;6.978;2023-04-24T03:29:48;99861.78;;;12.11;56.81
20825;BME280;10573;50.936;6.978;2023-04-24T03:32:16;99853.59;;;12.11;56.63
20825;BME280;10573;50.936;6.978;2023-04-24T03:34:41;99859.38;;;12.16;56.11
20825;BME280;10573;50.936;6.978;2023-04-24T03:37:07;99859.38;;;12.16;56.24
20825;BME280;10573;50.936;6.978;2023-04-24T03:39:32;99854.22;;;11.73;56.89
20825;BME280;10573;50.936;6.978;2023-04-24T03:41:57;99857.78;;;11.82;56.77
20825;BME280;10573;50.936;6.978;2023-04-24T03:44:23;99855.63;;;11.61;57.12
20825;BME280;10573;50.936;6.978;2023-04-24T03:46:48;99864.47;;;11.71;57.09
20825;BME280;10573;50.936;6.978;2023-04-24T03:49:13;99865.88;;;11.59;57.54
20825;BME280;10573;50.936;6.978;2023-04-24T03:51:39;99860.31;;;11.92;56.62
20825;BME280;10573;50.936;6.978;2023-04-24T03:54:04;99864.53;;;11.38;57.69
20825;BME280;10573;50.936;6.978;2023-04-24T03:56:29;99865.88;;;11.59;57.38
20825;BME280;10573;50.936;6.978;2023-04-24T03:58:55;99869.63;;;11.58;57.41
20825;BME280;10573;50.936;6.978;2023-04-24T04:01:20;99865.13;;;11.82;56.79
20825;BME280;10573;50.936;6.978;2023-04-24T04:03:46;99867.50;;;11.85;56.62
20825;BME280;10573;50.936;6.978;2023-04-24T04:06:11;99869.97;;;11.47;57.35
20825;BME280;10573;50.936;6.978;2023-04-24T04:08:38;99868.81;;;11.33;57.75
20825;BME280;10573;50.936;6.978;2023-04-24T04:11:03;99867.25;;;11.47;57.72
20825;BME280;10573;50.936;6.978;2023-04-24T04:13:28;99865.81;;;11.75;57.00
20825;BME280;10573;50.936;6.978;2023-04-24T04:15:54;99872.00;;;11.61;57.31
20825;BME280;10573;50.936;6.978;2023-04-24T04:18:19;99878.63;;;11.67;57.18
20825;BME280;10573;50.936;6.978;2023-04-24T04:20:45;99878.44;;;11.77;57.06
20825;BME280;10573;50.936;6.978;2023-04-24T04:23:10;99873.72;;;11.54;57.23
20825;BME280;10573;50.936;6.978;2023-04-24T04:25:35;99879.81;;;11.72;56.92
20825;BME280;10573;50.936;6.978;2023-04-24T04:28:01;99879.53;;;11.51;57.47
20825;BME280;10573;50.936;6.978;2023-04-24T04:30:27;99878.16;;;11.55;57.35
20825;BME280;10573;50.936;6.978;2023-04-24T04:32:54;99881.19;;;11.68;57.01
20825;BME280;10573;50.936;6.978;2023-04-24T04:35:20;99883.28;;;11.50;57.44
20825;BME280;10573;50.936;6.978;2023-04-24T04:37:45;99881.75;;;11.39;57.74
20825;BME280;10573;50.936;6.978;2023-04-24T04:40:10;99879.13;;;11.70;57.31
20825;BME280;10573;50.936;6.978;2023-04-24T04:42:36;99888.00;;;11.72;57.43
20825;BME280;10573;50.936;6.978;2023-04-24T04:45:06;99887.34;;;11.62;57.32
20825;BME280;10573;50.936;6.978;2023-04-24T04:47:33;99883.22;;;11.74;57.08
20825;BME280;10573;50.936;6.978;2023-04-24T04:49:59;99894.47;;;11.80;57.27
20825;BME280;10573;50.936;6.978;2023-04-24T04:52:25;99882.88;;;11.69;57.48
20825;BME280;10573;50.936;6.978;2023-04-24T04:54:50;99885.19;;;12.05;56.90
20825;BME280;10573;50.936;6.978;2023-04-24T04:57:16;99887.56;;;12.08;56.58
20825;BME280;10573;50.936;6.978;2023-04-24T04:59:41;99884.81;;;12.17;56.87
20825;BME280;10573;50.936;6.978;2023-04-24T05:02:07;99891.94;;;12.26;56.54
20825;BME280;10573;50.936;6.978;2023-04-24T05:04:32;99888.00;;;12.29;56.12
20825;BME280;10573;50.936;6.978;2023-04-24T05:06:57;99890.69;;;11.97;56.51
20825;BME280;10573;50.936;6.978;2023-04-24T05:09:23;99894.72;;;12.09;56.74
20825;BME280;10573;50.936;6.978;2023-04-24T05:11:52;99897.16;;;11.88;57.19
20825;BME280;10573;50.936;6.978;2023-04-24T05:14:17;99896.16;;;11.97;56.72
20825;BME280;10573;50.936;6.978;2023-04-24T05:16:44;99889.91;;;12.20;56.56
20825;BME280;10573;50.936;6.978;2023-04-24T05:19:09;99893.31;;;12.30;56.68
20825;BME280;10573;50.936;6.978;2023-04-24T05:21:36;99899.56;;;12.39;56.00
20825;BME280;10573;50.936;6.978;2023-04-24T05:24:02;99897.06;;;12.29;56.07
20825;BME280;10573;50.936;6.978;2023-04-24T05:26:27;99895.22;;;12.53;55.64
20825;BME280;10573;50.936;6.978;2023-04-24T05:28:52;99906.72;;;12.40;55.91
20825;BME280;10573;50.936;6.978;2023-04-24T05:31:17;99912.41;;;12.30;55.94
20825;BME280;10573;50.936;6.978;2023-04-24T05:33:43;99910.34;;;12.32;55.97
20825;BME280;10573;50.936;6.978;2023-04-24T05:36:08;99920.34;;;12.48;56.42
20825;BME280;10573;50.936;6.978;2023-04-24T05:38:33;99913.81;;;12.26;56.49
20825;BME280;10573;50.936;6.978;2023-04-24T05:40:59;99922.97;;;12.33;56.75
20825;BME280;10573;50.936;6.978;2023-04-24T05:43:24;99925.31;;;12.45;57.08
20825;BME280;10573;50.936;6.978;2023-04-24T05:45:50;99929.78;;;12.37;56.91
20825;BME280;10573;50.936;6.978;2023-04-24T05:48:15;99930.34;;;12.33;56.83
20825;BME280;10573;50.936;6.978;2023-04-24T05:50:41;99934.19;;;12.47;57.06
20825;BME280;10573;50.936;6.978;2023-04-24T05:53:06;99932.19;;;12.32;57.22
20825;BME280;10573;50.936;6.978;2023-04-24T05:55:32;99930.06;;;12.51;57.17
20825;BME280;10573;50.936;6.978;2023-04-24T05:57:57;99927.00;;;12.46;57.19
20825;BME280;10573;50.936;6.978;2023-04-24T06:00:23;99923.25;;;12.47;57.01
20825;BME280;10573;50.936;6.978;2023-04-24T06:02:48;99931.63;;;12.45;57.18
20825;BME280;10573;50.936;6.978;2023-04-24T06:05:14;99932.13;;;12.49;57.03
20825;BME280;10573;50.936;6.978;2023-04-24T06:07:39;99933.53;;;12.36;57.20
20825;BME280;10573;50.936;6.978;2023-04-24T06:10:05;99935.13;;;12.22;58.02
20825;BME280;10573;50.936;6.978;2023-04-24T06:12:31;99939.00;;;12.36;57.94
20825;BME280;10573;50.936;6.978;2023-04-24T06:14:56;99940.16;;;11.78;59.48
20825;BME280;10573;50.936;6.978;2023-04-24T06:17:21;99944.25;;;11.98;59.20
20825;BME280;10573;50.936;6.978;2023-04-24T06:19:46;99942.16;;;12.08;59.66
20825;BME280;10573;50.936;6.978;2023-04-24T06:22:12;99942.94;;;11.53;60.66
20825;BME280;10573;50.936;6.978;2023-04-24T06:24:39;99949.56;;;11.67;60.37
20825;BME280;10573;50.936;6.978;2023-04-24T06:27:04;99947.00;;;11.65;60.24
20825;BME280;10573;50.936;6.978;2023-04-24T06:29:29;99951.78;;;11.71;61.13
20825;BME280;10573;50.936;6.978;2023-04-24T06:31:55;99942.44;;;11.33;61.28
20825;BME280;10573;50.936;6.978;2023-04-24T06:34:20;99952.97;;;11.36;60.53
20825;BME280;10573;50.936;6.978;2023-04-24T06:36:46;99950.78;;;11.39;60.61
20825;BME280;10573;50.936;6.978;2023-04-24T06:39:11;99947.53;;;11.52;61.19
20825;BME280;10573;50.936;6.978;2023-04-24T06:41:37;99966.78;;;11.26;62.22
20825;BME280;10573;50.936;6.978;2023-04-24T06:44:02;99964.75;;;11.53;63.39
20825;BME280;10573;50.936;6.978;2023-04-24T06:46:27;99954.88;;;11.44;64.97
20825;BME280;10573;50.936;6.978;2023-04-24T06:48:53;99967.97;;;11.07;65.38
20825;BME280;10573;50.936;6.978;2023-04-24T06:51:25;99972.78;;;10.62;67.57
20825;BME280;10573;50.936;6.978;2023-04-24T06:53:51;99973.63;;;10.54;67.71
20825;BME280;10573;50.936;6.978;2023-04-24T06:56:16;99968.28;;;10.45;67.92
20825;BME280;10573;50.936;6.978;2023-04-24T06:58:41;99966.78;;;10.42;69.29
20825;BME280;10573;50.936;6.978;2023-04-24T07:01:07;99969.28;;;10.35;68.90
20825;BME280;10573;50.936;6.978;2023-04-24T07:03:32;99969.78;;;10.90;68.84
20825;BME280;10573;50.936;6.978;2023-04-24T07:05:58;99969.03;;;10.63;67.93
20825;BME280;10573;50.936;6.978;2023-04-24T07:08:23;99966.63;;;10.52;68.53
20825;BME280;10573;50.936;6.978;2023-04-24T07:10:49;99973.44;;;10.56;68.95
20825;BME280;10573;50.936;6.978;2023-04-24T07:13:15;99977.09;;;10.73;68.81
20825;BME280;10573;50.936;6.978;2023-04-24T07:15:40;99964.16;;;10.83;69.60
20825;BME280;10573;50.936;6.978;2023-04-24T07:18:06;99983.13;;;10.50;69.77
20825;BME280;10573;50.936;6.978;2023-04-24T07:20:31;99981.66;;;10.72;69.33
20825;BME280;10573;50.936;6.978;2023-04-24T07:22:58;99986.72;;;10.59;69.70
20825;BME280;10573;50.936;6.978;2023-04-24T07:25:23;99977.19;;;10.55;70.29
20825;BME280;10573;50.936;6.978;2023-04-24T07:27:48;99992.44;;;10.39;70.81
20825;BME280;10573;50.936;6.978;2023-04-24T07:30:14;100007.75;;;10.14;71.21
20825;BME280;10573;50.936;6.978;2023-04-24T07:32:39;100009.56;;;10.05;73.08
20825;BME280;10573;50.936;6.978;2023-04-24T07:35:05;100004.53;;;10.19;73.54
20825;BME280;10573;50.936;6.978;2023-04-24T07:37:30;100012.44;;;10.30;73.78
20825;BME280;10573;50.936;6.978;2023-04-24T07:39:56;100021.00;;;10.09;74.03
20825;BME280;10573;50.936;6.978;2023-04-24T07:42:21;100036.03;;;9.95;73.15
20825;BME280;10573;50.936;6.978;2023-04-24T07:44:47;100027.56;;;9.54;72.03
20825;BME280;10573;50.936;6.978;2023-04-24T07:47:12;100048.38;;;9.63;72.24
20825;BME280;10573;50.936;6.978;2023-04-24T07:49:40;100036.38;;;9.56;72.98
20825;BME280;10573;50.936;6.978;2023-04-24T07:52:05;100056.00;;;9.42;74.27
20825;BME280;10573;50.936;6.978;2023-04-24T07:54:31;100052.09;;;9.26;74.09
20825;BME280;10573;50.936;6.978;2023-04-24T07:56:56;100056.44;;;9.19;74.36
20825;BME280;10573;50.936;6.978;2023-04-24T07:59:21;100079.66;;;9.31;74.84
20825;BME280;10573;50.936;6.978;2023-04-24T08:01:47;100077.06;;;9.12;75.36
20825;BME280;10573;50.936;6.978;2023-04-24T08:04:12;100069.94;;;9.11;75.38
20825;BME280;10573;50.936;6.978;2023-04-24T08:06:37;100075.97;;;9.04;75.92
20825;BME280;10573;50.936;6.978;2023-04-24T08:09:03;100077.75;;;8.96;75.60
20825;BME280;10573;50.936;6.978;2023-04-24T08:11:28;100070.38;;;9.06;75.37
20825;BME280;10573;50.936;6.978;2023-04-24T08:13:53;100082.13;;;8.79;76.40
20825;BME280;10573;50.936;6.978;2023-04-24T08:16:19;100071.50;;;8.85;76.68
20825;BME280;10573;50.936;6.978;2023-04-24T08:18:45;100098.91;;;8.64;75.80
20825;BME280;10573;50.936;6.978;2023-04-24T08:21:10;100098.47;;;8.59;75.61
20825;BME280;10573;50.936;6.978;2023-04-24T08:23:38;100105.59;;;8.70;76.25
20825;BME280;10573;50.936;6.978;2023-04-24T08:26:03;100118.22;;;8.61;76.75
20825;BME280;10573;50.936;6.978;2023-04-24T08:28:28;100120.41;;;8.48;77.14
20825;BME280;10573;50.936;6.978;2023-04-24T08:30:54;100113.09;;;8.38;77.40
20825;BME280;10573;50.936;6.978;2023-04-24T08:33:23;100123.13;;;8.18;76.84
20825;BME280;10573;50.936;6.978;2023-04-24T08:35:48;100120.50;;;8.56;76.44
20825;BME280;10573;50.936;6.978;2023-04-24T08:38:13;100129.06;;;8.61;76.76
20825;BME280;10573;50.936;6.978;2023-04-24T08:40:39;100124.25;;;8.35;75.43
20825;BME280;10573;50.936;6.978;2023-04-24T08:43:04;100131.94;;;8.50;76.79
20825;BME280;10573;50.936;6.978;2023-04-24T08:45:30;100142.22;;;8.36;76.11
20825;BME280;10573;50.936;6.978;2023-04-24T08:47:55;100135.22;;;8.34;76.38
20825;BME280;10573;50.936;6.978;2023-04-24T08:50:22;100134.25;;;8.45;76.42
20825;BME280;10573;50.936;6.978;2023-04-24T08:52:49;100125.94;;;8.56;76.61
20825;BME280;10573;50.936;6.978;2023-04-24T08:55:15;100147.88;;;8.72;76.48
20825;BME280;10573;50.936;6.978;2023-04-24T08:57:41;100144.53;;;8.41;76.37
20825;BME280;10573;50.936;6.978;2023-04-24T09:00:10;100135.50;;;8.40;76.09
20825;BME280;10573;50.936;6.978;2023-04-24T09:02:35;100151.25;;;8.47;76.47
20825;BME280;10573;50.936;6.978;2023-04-24T09:05:01;100152.09;;;8.57;76.48
20825;BME280;10573;50.936;6.978;2023-04-24T09:07:27;100168.81;;;8.43;76.90
20825;BME280;10573;50.936;6.978;2023-04-24T09:09:52;100165.66;;;8.57;76.47
20825;BME280;10573;50.936;6.978;2023-04-24T09:12:18;100166.78;;;8.64;77.26
20825;BME280;10573;50.936;6.978;2023-04-24T09:14:44;100173.63;;;8.68;77.15
20825;BME280;10573;50.936;6.978;2023-04-24T09:17:10;100180.72;;;8.79;77.42
20825;BME280;10573;50.936;6.978;2023-04-24T09:19:36;100186.00;;;8.90;77.51
20825;BME280;10573;50.936;6.978;2023-04-24T09:22:04;100185.91;;;8.82;76.85
20825;BME280;10573;50.936;6.978;2023-04-24T09:24:30;100194.81;;;9.02;76.90
20825;BME280;10573;50.936;6.978;2023-04-24T09:26:56;100205.72;;;8.93;76.81
20825;BME280;10573;50.936;6.978;2023-04-24T09:29:22;100211.34;;;9.19;77.06
20825;BME280;10573;50.936;6.978;2023-04-24T09:31:48;100219.50;;;9.19;76.58
20825;BME280;10573;50.936;6.978;2023-04-24T09:34:13;100219.88;;;8.96;77.29
20825;BME280;10573;50.936;6.978;2023-04-24T09:36:39;100238.56;;;9.09;76.96
20825;BME280;10573;50.936;6.978;2023-04-24T09:39:06;100233.19;;;9.55;76.75
20825;BME280;10573;50.936;6.978;2023-04-24T09:41:47;100244.56;;;9.40;76.97
20825;BME280;10573;50.936;6.978;2023-04-24T09:46:38;100258.00;;;9.42;76.77
20825;BME280;10573;50.936;6.978;2023-04-24T09:49:10;100251.69;;;9.51;76.58
20825;BME280;10573;50.936;6.978;2023-04-24T09:51:36;100260.41;;;9.55;76.51
20825;BME280;10573;50.936;6.978;2023-04-24T09:54:03;100266.69;;;9.83;76.38
20825;BME280;10573;50.936;6.978;2023-04-24T09:56:32;100255.41;;;9.96;75.89
20825;BME280;10573;50.936;6.978;2023-04-24T09:59:04;100261.34;;;10.10;75.69
20825;BME280;10573;50.936;6.978;2023-04-24T10:01:33;100272.22;;;10.10;75.26
20825;BME280;10573;50.936;6.978;2023-04-24T10:03:58;100269.63;;;10.36;74.41
20825;BME280;10573;50.936;6.978;2023-04-24T10:06:33;100275.06;;;10.36;74.69
20825;BME280;10573;50.936;6.978;2023-04-24T10:08:59;100280.97;;;10.67;73.51
20825;BME280;10573;50.936;6.978;2023-04-24T10:11:28;100280.16;;;10.49;72.69
20825;BME280;10573;50.936;6.978;2023-04-24T10:13:53;100283.69;;;10.67;72.00
20825;BME280;10573;50.936;6.978;2023-04-24T10:16:19;100280.81;;;10.51;72.96
20825;BME280;10573;50.936;6.978;2023-04-24T10:18:44;100284.63;;;10.58;71.75
20825;BME280;10573;50.936;6.978;2023-04-24T10:21:10;100292.75;;;10.94;72.54
20825;BME280;10573;50.936;6.978;2023-04-24T10:23:36;100296.13;;;11.40;71.31
20825;BME280;10573;50.936;6.978;2023-04-24T10:26:02;100301.69;;;11.65;69.83
20825;BME280;10573;50.936;6.978;2023-04-24T10:28:27;100298.81;;;11.32;69.38
20825;BME280;10573;50.936;6.978;2023-04-24T10:30:56;100294.56;;;11.38;69.14
20825;BME280;10573;50.936;6.978;2023-04-24T10:33:22;100300.56;;;11.15;69.64
20825;BME280;10573;50.936;6.978;2023-04-24T10:35:48;100303.38;;;11.58;70.00
20825;BME280;10573;50.936;6.978;2023-04-24T10:38:21;100309.97;;;11.47;69.42
20825;BME280;10573;50.936;6.978;2023-04-24T10:40:49;100319.13;;;11.38;68.11
20825;BME280;10573;50.936;6.978;2023-04-24T10:43:16;100314.44;;;11.56;68.39
20825;BME280;10573;50.936;6.978;2023-04-24T10:45:42;100310.38;;;11.34;68.89
20825;BME280;10573;50.936;6.978;2023-04-24T10:48:26;100309.47;;;11.52;68.43
20825;BME280;10573;50.936;6.978;2023-04-24T10:50:52;100324.16;;;11.51;67.92
20825;BME280;10573;50.936;6.978;2023-04-24T10:53:18;100312.66;;;11.39;67.11
20825;BME280;10573;50.936;6.978;2023-04-24T10:55:48;100325.44;;;11.73;67.62
20825;BME280;10573;50.936;6.978;2023-04-24T10:58:14;100326.28;;;11.73;66.44
20825;BME280;10573;50.936;6.978;2023-04-24T11:00:41;100349.50;;;11.78;65.85
20825;BME280;10573;50.936;6.978;2023-04-24T11:03:22;100335.34;;;11.74;65.66
20825;BME280;10573;50.936;6.978;2023-04-24T11:05:51;100331.28;;;12.21;65.37
20825;BME280;10573;50.936;6.978;2023-04-24T11:08:38;100333.38;;;12.44;65.06
20825;BME280;10573;50.936;6.978;2023-04-24T11:11:09;100329.94;;;12.33;64.45
20825;BME280;10573;50.936;6.978;2023-04-24T11:18:50;100336.16;;;12.68;66.51
20825;BME280;10573;50.936;6.978;2023-04-24T11:21:18;100345.00;;;12.62;65.24
20825;BME280;10573;50.936;6.978;2023-04-24T11:23:44;100340.91;;;12.58;64.58
20825;BME280;10573;50.936;6.978;2023-04-24T11:26:10;100362.09;;;12.64;65.07
20825;BME280;10573;50.936;6.978;2023-04-24T11:28:36;100351.53;;;12.61;66.13
20825;BME280;10573;50.936;6.978;2023-04-24T11:33:53;100359.84;;;12.43;67.19
20825;BME280;10573;50.936;6.978;2023-04-24T11:36:19;100378.69;;;12.12;66.26
20825;BME280;10573;50.936;6.978;2023-04-24T11:38:44;100373.63;;;12.25;67.51
20825;BME280;10573;50.936;6.978;2023-04-24T11:41:10;100369.69;;;12.19;65.79
20825;BME280;10573;50.936;6.978;2023-04-24T11:43:36;100376.34;;;12.17;65.65
20825;BME280;10573;50.936;6.978;2023-04-24T11:46:02;100378.03;;;12.18;65.06
20825;BME280;10573;50.936;6.978;2023-04-24T11:48:28;100370.84;;;12.76;63.69
20825;BME280;10573;50.936;6.978;2023-04-24T11:50:53;100370.31;;;13.47;61.44
20825;BME280;10573;50.936;6.978;2023-04-24T11:53:19;100374.25;;;13.27;62.07
20825;BME280;10573;50.936;6.978;2023-04-24T11:55:45;100372.59;;;14.62;59.92
20825;BME280;10573;50.936;6.978;2023-04-24T11:58:10;100372.28;;;14.65;57.96
20825;BME280;10573;50.936;6.978;2023-04-24T12:00:36;100373.59;;;15.16;56.17
20825;BME280;10573;50.936;6.978;2023-04-24T12:03:04;100374.22;;;15.03;56.48
20825;BME280;10573;50.936;6.978;2023-04-24T12:05:30;100377.19;;;14.38;57.95
20825;BME280;10573;50.936;6.978;2023-04-24T12:07:56;100382.88;;;14.68;58.47
20825;BME280;10573;50.936;6.978;2023-04-24T12:10:25;100382.38;;;14.88;59.40
20825;BME280;10573;50.936;6.978;2023-04-24T12:12:51;100388.53;;;15.13;57.06
20825;BME280;10573;50.936;6.978;2023-04-24T12:15:17;100387.41;;;14.84;56.52
20825;BME280;10573;50.936;6.978;2023-04-24T12:17:43;100391.63;;;14.64;57.31
20825;BME280;10573;50.936;6.978;2023-04-24T12:20:09;100384.31;;;14.16;56.68
20825;BME280;10573;50.936;6.978;2023-04-24T12:22:51;100392.53;;;13.52;56.71
20825;BME280;10573;50.936;6.978;2023-04-24T12:25:18;100390.97;;;13.74;56.29
20825;BME280;10573;50.936;6.978;2023-04-24T12:27:44;100394.59;;;13.66;58.42
20825;BME280;10573;50.936;6.978;2023-04-24T12:30:11;100398.84;;;13.69;57.84
20825;BME280;10573;50.936;6.978;2023-04-24T12:32:40;100391.47;;;13.77;58.19
20825;BME280;10573;50.936;6.978;2023-04-24T12:35:06;100403.50;;;13.27;59.71
20825;BME280;10573;50.936;6.978;2023-04-24T12:37:32;100405.25;;;14.09;58.59
20825;BME280;10573;50.936;6.978;2023-04-24T12:39:58;100399.63;;;14.02;58.20
20825;BME280;10573;50.936;6.978;2023-04-24T12:42:28;100403.81;;;14.61;54.87
20825;BME280;10573;50.936;6.978;2023-04-24T12:44:57;100400.47;;;14.42;55.15
20825;BME280;10573;50.936;6.978;2023-04-24T12:47:24;100406.22;;;14.56;54.88
20825;BME280;10573;50.936;6.978;2023-04-24T12:49:49;100402.28;;;14.50;55.71
20825;BME280;10573;50.936;6.978;2023-04-24T12:52:16;100410.41;;;14.35;55.04
20825;BME280;10573;50.936;6.978;2023-04-24T12:54:42;100407.09;;;14.17;55.83
20825;BME280;10573;50.936;6.978;2023-04-24T12:57:07;100418.97;;;13.92;56.12
20825;BME280;10573;50.936;6.978;2023-04-24T12:59:33;100413.66;;;13.91;55.91
20825;BME280;10573;50.936;6.978;2023-04-24T13:01:58;100428.88;;;14.10;56.45